Time;durP1;ratioP1;P1;durP2;ratioP2;P2;SDS_P1;SDS_P2;PMS_P1;PMS_P2;Temp;Humidity;BMP_temperature;BMP_pressure;BME280_temperature;BME280_humidity;BME280_pressure;Samples;Min_cycle;Max_cycle;Signal;HPM_P1;HPM_P2
2022/06/18 00:00:01;;;;;;;;;;;;;;;20.69;41.38;101051.97;5358196;32;35096;-77
2022/06/18 00:03:03;;;;;;;;;;;;;;;21.67;39.11;101042.16;5343755;32;35497;-70
2022/06/18 00:06:05;;;;;;;;;;;;;;;21.64;39.67;101045.09;5356344;32;35571;-76
2022/06/18 00:09:08;;;;;;;;;;;;;;;21.42;40.03;101051.16;5341053;32;35574;-70
2022/06/18 00:15:34;;;;;;;;;;;;;;;20.19;43.00;101061.66;5355843;32;44670;-77
2022/06/18 00:18:36;;;;;;;;;;;;;;;20.73;42.38;101057.94;5343101;32;36335;-77
2022/06/18 00:21:39;;;;;;;;;;;;;;;21.58;40.32;101050.87;5356478;32;34983;-75
2022/06/18 00:24:41;;;;;;;;;;;;;;;21.76;39.78;101065.53;5354152;32;36107;-72
2022/06/18 00:27:43;;;;;;;;;;;;;;;21.75;39.53;101060.31;5352181;32;36884;-76
2022/06/18 00:30:47;;;;;;;;;;;;;;;20.44;42.66;101043.94;5349966;32;36158;-77
2022/06/18 00:33:49;;;;;;;;;;;;;;;21.14;41.52;101057.66;5343555;32;35462;-74
2022/06/18 00:36:51;;;;;;;;;;;;;;;21.86;39.50;101055.00;5356715;32;35077;-76
2022/06/18 00:39:52;;;;;;;;;;;;;;;21.43;40.52;101066.22;5324628;32;35111;-75
2022/06/18 00:42:55;;;;;;;;;;;;;;;20.89;41.57;101058.56;5354969;32;34399;-77
2022/06/18 00:46:00;;;;;;;;;;;;;;;20.31;42.62;101056.44;5341556;32;43444;-76
2022/06/18 00:49:14;;;;;;;;;;;;;;;19.98;43.33;101063.97;5346235;32;35178;-73
2022/06/18 00:52:17;;;;;;;;;;;;;;;20.09;43.02;101071.25;5356769;32;34489;-70
2022/06/18 00:55:19;;;;;;;;;;;;;;;21.03;41.42;101058.41;5341174;32;35378;-70
2022/06/18 00:58:27;;;;;;;;;;;;;;;21.26;40.56;101072.81;5358032;32;35319;-70
2022/06/18 01:01:30;;;;;;;;;;;;;;;19.99;43.18;101079.03;5341229;32;45166;-76
2022/06/18 01:04:34;;;;;;;;;;;;;;;20.34;42.65;101067.75;5356185;32;34600;-71
2022/06/18 01:07:38;;;;;;;;;;;;;;;19.58;44.63;101068.47;5343754;32;35596;-69
2022/06/18 01:10:41;;;;;;;;;;;;;;;19.89;44.18;101066.41;5339262;32;34891;-76
2022/06/18 01:13:43;;;;;;;;;;;;;;;20.00;43.94;101069.22;5352328;32;37033;-72
2022/06/18 01:16:46;;;;;;;;;;;;;;;19.59;44.80;101066.66;5340477;32;34980;-70
2022/06/18 01:19:49;;;;;;;;;;;;;;;19.57;45.11;101061.38;5358691;32;35445;-78
2022/06/18 01:22:52;;;;;;;;;;;;;;;20.16;43.93;101061.88;5344412;32;35690;-78
2022/06/18 01:25:54;;;;;;;;;;;;;;;20.21;43.73;101066.88;5356826;32;35569;-71
2022/06/18 01:28:55;;;;;;;;;;;;;;;19.81;44.68;101072.25;5333574;32;34341;-77
2022/06/18 01:31:58;;;;;;;;;;;;;;;20.23;43.64;101071.19;5346064;32;47164;-70
2022/06/18 01:35:00;;;;;;;;;;;;;;;19.69;44.59;101065.91;5358162;32;34957;-77
2022/06/18 01:38:02;;;;;;;;;;;;;;;19.23;45.59;101052.06;5343692;32;35474;-70
2022/06/18 01:44:39;;;;;;;;;;;;;;;19.18;45.34;101059.50;5343636;32;44977;-78
2022/06/18 01:47:46;;;;;;;;;;;;;;;20.31;42.91;101057.28;5346070;32;34949;-78
2022/06/18 01:50:51;;;;;;;;;;;;;;;20.02;43.38;101052.12;5356944;32;34330;-76
2022/06/18 01:53:53;;;;;;;;;;;;;;;19.91;43.57;101045.84;5343403;32;34526;-70
2022/06/18 01:56:57;;;;;;;;;;;;;;;19.79;43.73;101046.66;5358077;32;35443;-77
2022/06/18 02:00:03;;;;;;;;;;;;;;;20.48;42.41;101054.34;5342343;32;44632;-76
2022/06/18 02:03:06;;;;;;;;;;;;;;;20.54;42.26;101051.25;5352521;32;35328;-77
2022/06/18 02:06:11;;;;;;;;;;;;;;;20.19;43.00;101037.63;5349647;32;33825;-78
2022/06/18 02:09:25;;;;;;;;;;;;;;;20.60;42.43;101049.94;5342047;32;34977;-69
2022/06/18 02:12:27;;;;;;;;;;;;;;;20.16;43.17;101051.22;5354217;32;44408;-71
2022/06/18 02:15:31;;;;;;;;;;;;;;;19.92;44.16;101051.06;5342339;32;36282;-76
2022/06/18 02:18:33;;;;;;;;;;;;;;;19.43;45.31;101048.94;5359160;32;35088;-77
2022/06/18 02:21:36;;;;;;;;;;;;;;;19.51;45.24;101039.59;5341204;32;35555;-76
2022/06/18 02:24:38;;;;;;;;;;;;;;;19.82;44.58;101039.28;5342974;32;35293;-71
2022/06/18 02:27:40;;;;;;;;;;;;;;;19.35;45.95;101040.59;5358534;32;35314;-75
2022/06/18 02:30:42;;;;;;;;;;;;;;;19.03;46.76;101028.50;5341900;32;34282;-73
2022/06/18 02:33:46;;;;;;;;;;;;;;;19.05;47.02;101045.25;5358511;32;34600;-78
2022/06/18 02:36:48;;;;;;;;;;;;;;;19.92;45.25;101051.06;5342657;32;34979;-72
2022/06/18 02:39:52;;;;;;;;;;;;;;;20.47;43.58;101039.25;5338089;32;35645;-77
2022/06/18 02:42:56;;;;;;;;;;;;;;;20.49;43.38;101029.34;5341644;32;34402;-77
2022/06/18 02:45:58;;;;;;;;;;;;;;;20.37;43.59;101045.34;5342351;32;44607;-75
2022/06/18 02:49:02;;;;;;;;;;;;;;;19.34;46.02;101049.56;5357899;32;35760;-76
2022/06/18 02:52:04;;;;;;;;;;;;;;;19.75;45.29;101041.50;5345418;32;34416;-70
2022/06/18 02:55:26;;;;;;;;;;;;;;;20.70;43.21;101040.31;5359187;32;34859;-76
2022/06/18 02:58:30;;;;;;;;;;;;;;;20.60;43.25;101055.28;5331362;32;43632;-76
2022/06/18 03:01:32;;;;;;;;;;;;;;;18.74;48.10;101052.53;5349931;32;35175;-69
2022/06/18 03:04:34;;;;;;;;;;;;;;;18.93;47.75;101055.75;5350562;32;34755;-78
2022/06/18 03:07:36;;;;;;;;;;;;;;;19.99;44.96;101048.81;5342568;32;34843;-78
2022/06/18 03:13:59;;;;;;;;;;;;;;;18.86;47.90;101062.38;5339570;32;46807;-70
2022/06/18 03:17:01;;;;;;;;;;;;;;;18.80;48.24;101060.09;5359075;32;34730;-70
2022/06/18 03:20:04;;;;;;;;;;;;;;;18.93;47.95;101057.53;5344205;32;34842;-76
2022/06/18 03:23:07;;;;;;;;;;;;;;;18.82;48.16;101060.87;5343082;32;35404;-70
2022/06/18 03:26:09;;;;;;;;;;;;;;;18.80;48.19;101060.09;5359147;32;34325;-75
2022/06/18 03:29:11;;;;;;;;;;;;;;;19.51;46.28;101063.56;5342054;32;34993;-76
2022/06/18 03:32:13;;;;;;;;;;;;;;;19.83;45.75;101065.00;5358233;32;35148;-71
2022/06/18 03:35:15;;;;;;;;;;;;;;;20.18;45.19;101065.28;5341696;32;35211;-70
2022/06/18 03:38:17;;;;;;;;;;;;;;;19.63;46.10;101071.66;5354232;32;35511;-78
2022/06/18 03:41:20;;;;;;;;;;;;;;;19.88;45.36;101070.87;5310196;32;36263;-75
2022/06/18 03:44:23;;;;;;;;;;;;;;;19.46;46.62;101063.91;5329725;32;35280;-77
2022/06/18 03:47:26;;;;;;;;;;;;;;;19.59;46.44;101054.16;5354123;32;35418;-69
2022/06/18 03:50:28;;;;;;;;;;;;;;;19.64;46.05;101057.41;5345404;32;44518;-77
2022/06/18 03:53:30;;;;;;;;;;;;;;;20.80;43.48;101045.84;5357424;32;35087;-77
2022/06/18 03:56:32;;;;;;;;;;;;;;;21.06;42.86;101044.84;5342345;32;35020;-77
2022/06/18 03:59:34;;;;;;;;;;;;;;;21.12;42.95;101051.53;5355836;32;35123;-71
2022/06/18 04:02:36;;;;;;;;;;;;;;;20.23;45.07;101056.97;5345325;32;34767;-77
2022/06/18 04:05:39;;;;;;;;;;;;;;;20.15;45.44;101049.47;5342928;32;35547;-70
2022/06/18 04:08:41;;;;;;;;;;;;;;;20.42;45.41;101061.91;5356695;32;34764;-77
2022/06/18 04:11:43;;;;;;;;;;;;;;;19.33;48.22;101066.50;5342001;32;36555;-71
2022/06/18 04:14:45;;;;;;;;;;;;;;;19.90;46.88;101063.66;5355774;32;35078;-78
2022/06/18 04:17:47;;;;;;;;;;;;;;;20.76;44.75;101063.06;5340374;32;35398;-78
2022/06/18 04:20:49;;;;;;;;;;;;;;;20.44;45.52;101063.50;5351439;32;35168;-70
2022/06/18 04:23:51;;;;;;;;;;;;;;;19.98;46.99;101066.66;5345368;32;36167;-76
2022/06/18 04:26:54;;;;;;;;;;;;;;;20.17;46.41;101065.41;5342864;32;35440;-71
2022/06/18 04:29:56;;;;;;;;;;;;;;;21.55;42.81;101062.66;5356526;32;34236;-75
2022/06/18 04:32:58;;;;;;;;;;;;;;;21.64;42.88;101063.81;5341946;32;45849;-76
2022/06/18 04:36:00;;;;;;;;;;;;;;;20.34;45.98;101065.06;5357147;32;34919;-71
2022/06/18 04:39:02;;;;;;;;;;;;;;;19.93;47.60;101075.91;5329346;32;35170;-70
2022/06/18 04:42:04;;;;;;;;;;;;;;;20.36;46.80;101073.00;5341361;32;35982;-75
2022/06/18 04:45:06;;;;;;;;;;;;;;;20.33;46.57;101066.03;5349222;32;34765;-69
2022/06/18 04:48:08;;;;;;;;;;;;;;;20.56;46.46;101067.16;5338805;32;35311;-71
2022/06/18 04:51:10;;;;;;;;;;;;;;;20.41;46.89;101077.03;5357701;32;35518;-78
2022/06/18 04:54:12;;;;;;;;;;;;;;;22.18;42.66;101082.03;5344549;32;34382;-78
2022/06/18 04:57:14;;;;;;;;;;;;;;;22.25;42.42;101083.25;5360711;32;34998;-78
2022/06/18 05:00:17;;;;;;;;;;;;;;;21.60;44.07;101094.41;5343634;32;34364;-71
2022/06/18 05:03:21;;;;;;;;;;;;;;;22.50;42.42;101084.87;5353671;32;34933;-78
2022/06/18 05:06:23;;;;;;;;;;;;;;;22.29;42.66;101079.38;5350731;32;34808;-78
2022/06/18 05:09:25;;;;;;;;;;;;;;;22.44;41.74;101086.22;5343905;32;35091;-71
2022/06/18 05:12:27;;;;;;;;;;;;;;;23.72;39.30;101085.78;5354559;32;47031;-77
2022/06/18 05:15:30;;;;;;;;;;;;;;;23.28;40.38;101088.56;5342510;32;35515;-79
2022/06/18 05:18:33;;;;;;;;;;;;;;;23.18;40.68;101094.66;5357036;32;35512;-71
2022/06/18 05:21:34;;;;;;;;;;;;;;;24.48;37.66;101091.03;5343302;32;34816;-71
2022/06/18 05:24:36;;;;;;;;;;;;;;;25.64;35.24;101096.84;5351994;32;35746;-72
2022/06/18 05:27:39;;;;;;;;;;;;;;;23.91;38.64;101094.97;5352476;32;35575;-70
2022/06/18 05:30:41;;;;;;;;;;;;;;;24.43;36.72;101099.47;5344544;32;35453;-70
2022/06/18 05:33:42;;;;;;;;;;;;;;;24.75;36.52;101094.00;5359720;32;35101;-75
2022/06/18 05:36:44;;;;;;;;;;;;;;;24.73;37.06;101101.34;5344411;32;34384;-76
2022/06/18 05:39:46;;;;;;;;;;;;;;;26.58;33.37;101106.00;5341664;32;35160;-71
2022/06/18 05:42:50;;;;;;;;;;;;;;;27.83;30.42;101101.00;5339470;32;35910;-70
2022/06/18 05:45:53;;;;;;;;;;;;;;;25.44;34.62;101108.53;5351226;32;35516;-71
2022/06/18 05:48:55;;;;;;;;;;;;;;;26.22;33.42;101112.19;5353025;32;34444;-72
2022/06/18 05:51:57;;;;;;;;;;;;;;;26.05;32.88;101111.03;5344169;32;46226;-78
2022/06/18 05:54:59;;;;;;;;;;;;;;;26.99;31.89;101114.69;5358041;32;44632;-72
2022/06/18 05:58:01;;;;;;;;;;;;;;;28.28;29.53;101110.84;5328250;32;35861;-71
2022/06/18 06:01:03;;;;;;;;;;;;;;;27.23;30.18;101100.66;5358739;32;35679;-80
2022/06/18 06:04:05;;;;;;;;;;;;;;;27.58;30.16;101107.16;5343844;32;35275;-72
2022/06/18 06:07:08;;;;;;;;;;;;;;;28.01;29.34;101115.34;5335949;32;34933;-72
2022/06/18 06:13:42;;;;;;;;;;;;;;;27.18;29.93;101108.37;5338829;32;34318;-73
2022/06/18 06:16:44;;;;;;;;;;;;;;;26.90;31.10;101108.31;5359510;32;35963;-71
2022/06/18 06:19:46;;;;;;;;;;;;;;;29.79;26.56;101102.13;5342662;32;33349;-72
2022/06/18 06:22:48;;;;;;;;;;;;;;;28.33;28.38;101101.25;5351958;32;34904;-71
2022/06/18 06:25:50;;;;;;;;;;;;;;;28.59;28.12;101098.56;5351820;32;34625;-77
2022/06/18 06:28:52;;;;;;;;;;;;;;;28.13;28.54;101098.88;5345259;32;35449;-71
2022/06/18 06:31:54;;;;;;;;;;;;;;;28.80;27.82;101097.34;5358147;32;34505;-71
2022/06/18 06:34:56;;;;;;;;;;;;;;;30.55;25.06;101098.22;5345170;32;35010;-72
2022/06/18 06:37:58;;;;;;;;;;;;;;;28.68;28.01;101107.59;5357992;32;44557;-79
2022/06/18 06:40:59;;;;;;;;;;;;;;;28.41;27.55;101105.06;5320506;32;35010;-71
2022/06/18 06:44:01;;;;;;;;;;;;;;;29.00;26.48;101104.25;5351786;32;34993;-78
2022/06/18 06:47:05;;;;;;;;;;;;;;;29.73;25.77;101100.06;5336661;32;35526;-78
2022/06/18 06:50:08;;;;;;;;;;;;;;;28.94;26.01;101098.63;5330535;32;34687;-71
2022/06/18 06:53:10;;;;;;;;;;;;;;;31.76;22.25;101087.84;5354680;32;34268;-71
2022/06/18 06:59:33;;;;;;;;;;;;;;;31.46;22.40;101089.59;5358221;32;44592;-77
2022/06/18 07:02:35;;;;;;;;;;;;;;;29.83;24.07;101088.06;5342173;32;34964;-79
2022/06/18 07:05:37;;;;;;;;;;;;;;;28.90;25.09;101084.53;5341825;32;34270;-71
2022/06/18 07:08:39;;;;;;;;;;;;;;;30.13;23.74;101086.56;5359419;32;35250;-79
2022/06/18 07:11:43;;;;;;;;;;;;;;;32.98;20.35;101077.72;5340069;32;35317;-71
2022/06/18 07:14:44;;;;;;;;;;;;;;;30.99;22.34;101085.06;5358468;32;35226;-72
2022/06/18 07:17:47;;;;;;;;;;;;;;;32.04;20.75;101085.44;5340249;32;34369;-72
2022/06/18 07:20:49;;;;;;;;;;;;;;;31.87;21.09;101082.00;5357191;32;34853;-78
2022/06/18 07:23:51;;;;;;;;;;;;;;;32.14;20.75;101074.28;5345904;32;35446;-72
2022/06/18 07:26:53;;;;;;;;;;;;;;;31.07;22.16;101073.31;5343448;32;34994;-80
2022/06/18 07:29:55;;;;;;;;;;;;;;;30.88;22.67;101072.69;5360303;32;33990;-79
2022/06/18 07:32:57;;;;;;;;;;;;;;;31.09;22.53;101072.09;5343052;32;35425;-71
2022/06/18 07:35:59;;;;;;;;;;;;;;;29.91;24.06;101074.53;5359622;32;44391;-79
2022/06/18 07:39:01;;;;;;;;;;;;;;;29.72;24.66;101082.13;5322281;32;252210;-71
2022/06/18 07:42:04;;;;;;;;;;;;;;;29.89;24.77;101081.97;5348712;32;35170;-71
2022/06/18 07:45:09;;;;;;;;;;;;;;;31.93;21.83;101080.44;5344666;32;35382;-72
2022/06/18 07:48:11;;;;;;;;;;;;;;;29.83;24.24;101084.53;5339995;32;35230;-80
2022/06/18 07:51:13;;;;;;;;;;;;;;;27.65;27.93;101081.22;5357105;32;35392;-76
2022/06/18 07:54:15;;;;;;;;;;;;;;;28.81;26.39;101080.09;5343360;32;34299;-77
2022/06/18 07:57:17;;;;;;;;;;;;;;;30.79;23.75;101073.75;5357660;32;34402;-78
2022/06/18 08:00:21;;;;;;;;;;;;;;;30.57;24.10;101078.03;5344185;32;34759;-78
2022/06/18 08:03:23;;;;;;;;;;;;;;;30.01;24.13;101079.75;5356392;32;35460;-77
2022/06/18 08:06:25;;;;;;;;;;;;;;;28.99;25.80;101077.34;5343696;32;34845;-73
2022/06/18 08:09:27;;;;;;;;;;;;;;;30.03;24.56;101076.91;5342316;32;44744;-71
2022/06/18 08:12:30;;;;;;;;;;;;;;;27.94;27.14;101073.75;5354990;32;35283;-78
2022/06/18 08:15:32;;;;;;;;;;;;;;;30.12;24.42;101065.91;5340073;32;36166;-78
2022/06/18 08:18:34;;;;;;;;;;;;;;;31.74;22.15;101063.56;5369312;32;34977;-70
2022/06/18 08:21:40;;;;;;;;;;;;;;;30.59;23.85;101061.56;5338983;32;34509;-78
2022/06/18 08:24:42;;;;;;;;;;;;;;;31.92;21.28;101055.13;5353253;32;34999;-71
2022/06/18 08:27:44;;;;;;;;;;;;;;;31.90;21.81;101049.03;5347067;32;34519;-79
2022/06/18 08:30:46;;;;;;;;;;;;;;;32.07;21.96;101050.59;5344609;32;34548;-79
2022/06/18 08:33:48;;;;;;;;;;;;;;;32.42;21.15;101052.81;5361735;32;35482;-71
2022/06/18 08:36:50;;;;;;;;;;;;;;;31.91;21.46;101053.44;5345317;32;35326;-81
2022/06/18 08:39:52;;;;;;;;;;;;;;;33.50;19.91;101050.28;5341411;32;35141;-81
2022/06/18 08:42:58;;;;;;;;;;;;;;;32.77;20.68;101048.47;5341295;32;35804;-77
2022/06/18 08:46:06;;;;;;;;;;;;;;;32.45;20.81;101042.38;5352269;32;45135;-78
2022/06/18 08:49:09;;;;;;;;;;;;;;;34.18;18.79;101035.16;5350160;32;35670;-71
2022/06/18 08:52:33;;;;;;;;;;;;;;;33.94;18.65;101027.41;5344364;32;34891;-78
2022/06/18 08:55:44;;;;;;;;;;;;;;;32.63;20.30;101028.41;5361777;32;47684;-79
2022/06/18 08:58:52;;;;;;;;;;;;;;;33.68;19.05;101017.09;5343786;32;35275;-79
2022/06/18 09:02:01;;;;;;;;;;;;;;;36.37;16.32;101022.12;5351646;32;34796;-72
2022/06/18 09:05:08;;;;;;;;;;;;;;;35.43;17.69;101025.09;5355432;32;45502;-72
2022/06/18 09:08:10;;;;;;;;;;;;;;;33.46;18.47;101031.78;5341131;32;34237;-78
2022/06/18 09:11:28;;;;;;;;;;;;;;;32.18;20.51;101032.12;5358293;32;35290;-73
2022/06/18 09:14:33;;;;;;;;;;;;;;;34.89;17.19;101023.19;5340580;32;44490;-79
2022/06/18 09:17:46;;;;;;;;;;;;;;;34.46;18.03;101024.25;5354784;32;35319;-71
2022/06/18 09:20:51;;;;;;;;;;;;;;;33.21;19.30;101021.19;5349631;32;34752;-71
2022/06/18 09:24:12;;;;;;;;;;;;;;;32.94;19.24;101014.62;5344532;32;34977;-72
2022/06/18 09:27:20;;;;;;;;;;;;;;;36.25;16.50;101002.78;5356729;32;34991;-78
2022/06/18 09:30:21;;;;;;;;;;;;;;;33.72;18.94;101004.75;5324304;32;35648;-79
2022/06/18 09:33:32;;;;;;;;;;;;;;;36.59;15.98;101004.44;5358509;32;34955;-80
2022/06/18 09:36:36;;;;;;;;;;;;;;;33.91;18.19;101009.56;5348269;32;45047;-77
2022/06/18 09:39:39;;;;;;;;;;;;;;;32.73;19.50;101009.94;5326293;32;34908;-71
2022/06/18 09:42:42;;;;;;;;;;;;;;;33.17;19.18;101000.84;5350611;32;35889;-70
2022/06/18 09:45:49;;;;;;;;;;;;;;;33.50;18.44;100994.94;5343557;32;34938;-79
2022/06/18 09:48:51;;;;;;;;;;;;;;;33.52;18.54;100993.69;5361556;32;34275;-72
2022/06/18 09:52:07;;;;;;;;;;;;;;;35.09;16.81;100990.50;5340298;32;36309;-71
2022/06/18 09:55:19;;;;;;;;;;;;;;;35.73;16.51;100995.44;5344351;32;35576;-71
2022/06/18 09:58:23;;;;;;;;;;;;;;;34.88;17.03;100986.00;5358485;32;33019;-71
2022/06/18 10:01:27;;;;;;;;;;;;;;;35.52;16.80;100985.56;5342853;32;35628;-71
2022/06/18 10:07:50;;;;;;;;;;;;;;;36.75;15.10;100980.34;5343932;32;34549;-73
2022/06/18 10:10:53;;;;;;;;;;;;;;;32.95;19.04;100985.50;5346878;32;34482;-78
2022/06/18 10:13:57;;;;;;;;;;;;;;;33.37;19.04;100980.09;5351776;32;35692;-79
2022/06/18 10:17:22;;;;;;;;;;;;;;;37.12;15.58;100963.09;5334304;32;44890;-80
2022/06/18 10:20:36;;;;;;;;;;;;;;;33.91;18.25;100976.84;5351421;32;34363;-73
2022/06/18 10:23:56;;;;;;;;;;;;;;;35.05;17.31;100961.94;5344182;32;35260;-72
2022/06/18 10:27:03;;;;;;;;;;;;;;;35.53;16.60;100955.28;5343440;32;47082;-80
2022/06/18 10:30:11;;;;;;;;;;;;;;;34.41;17.35;100954.91;5360092;32;34300;-72
2022/06/18 10:33:32;;;;;;;;;;;;;;;35.57;16.40;100950.25;5341015;32;36563;-78
2022/06/18 10:36:37;;;;;;;;;;;;;;;33.98;17.84;100951.50;5358082;32;45498;-80
2022/06/18 10:39:57;;;;;;;;;;;;;;;33.99;17.71;100947.75;5325864;32;34564;-79
2022/06/18 10:43:05;;;;;;;;;;;;;;;33.35;17.92;100952.19;5341613;32;44534;-81
2022/06/18 10:46:11;;;;;;;;;;;;;;;34.14;16.39;100932.13;5359553;32;35134;-72
2022/06/18 10:49:13;;;;;;;;;;;;;;;35.32;15.71;100936.34;5343447;32;35752;-71
2022/06/18 10:52:16;;;;;;;;;;;;;;;36.92;14.68;100935.00;5357244;32;35646;-73
2022/06/18 10:55:19;;;;;;;;;;;;;;;37.25;14.25;100931.19;5340390;32;35194;-72
2022/06/18 10:58:21;;;;;;;;;;;;;;;40.19;12.11;100934.31;5354740;32;34185;-72
2022/06/18 11:01:34;;;;;;;;;;;;;;;36.15;15.61;100911.28;5348048;32;35246;-71
2022/06/18 11:04:36;;;;;;;;;;;;;;;37.01;14.77;100930.06;5343474;32;44479;-71
2022/06/18 11:07:38;;;;;;;;;;;;;;;35.46;16.52;100932.59;5360557;32;34318;-79
2022/06/18 11:10:59;;;;;;;;;;;;;;;33.09;19.53;100938.31;5340153;32;34461;-71
2022/06/18 11:14:28;;;;;;;;;;;;;;;34.53;18.25;100936.97;5355853;32;44658;-72
2022/06/18 11:17:31;;;;;;;;;;;;;;;33.35;19.20;100921.37;5345141;32;44300;-78
2022/06/18 11:20:33;;;;;;;;;;;;;;;34.48;18.33;100923.91;5343758;32;35641;-79
2022/06/18 11:23:35;;;;;;;;;;;;;;;37.53;15.01;100917.06;5358497;32;34342;-79
2022/06/18 11:26:59;;;;;;;;;;;;;;;36.99;15.44;100902.06;5342219;32;44923;-72
2022/06/18 11:30:09;;;;;;;;;;;;;;;34.50;17.86;100903.75;5356851;32;34149;-78
2022/06/18 11:33:20;;;;;;;;;;;;;;;34.66;17.63;100903.41;5346810;32;35216;-72
2022/06/18 11:36:31;;;;;;;;;;;;;;;35.06;16.81;100898.91;5340164;32;35019;-79
2022/06/18 11:39:34;;;;;;;;;;;;;;;34.95;17.03;100897.63;5341784;32;46945;-79
2022/06/18 11:42:38;;;;;;;;;;;;;;;35.15;16.99;100881.25;5337783;32;35693;-79
2022/06/18 11:45:46;;;;;;;;;;;;;;;37.61;15.02;100886.59;5357154;32;34965;-72
2022/06/18 11:48:50;;;;;;;;;;;;;;;37.45;15.46;100878.97;5341970;32;35100;-72
2022/06/18 11:52:01;;;;;;;;;;;;;;;35.99;16.33;100874.28;5341914;32;35427;-72
2022/06/18 11:55:22;;;;;;;;;;;;;;;36.96;15.31;100859.50;5356953;32;45061;-73
2022/06/18 11:58:38;;;;;;;;;;;;;;;35.43;16.60;100861.97;5341732;32;35712;-79
2022/06/18 12:01:41;;;;;;;;;;;;;;;38.35;14.30;100860.91;5360499;32;35169;-76
2022/06/18 12:04:44;;;;;;;;;;;;;;;34.78;17.91;100859.94;5343437;32;35122;-71
2022/06/18 12:07:56;;;;;;;;;;;;;;;32.38;20.47;100874.69;5343643;32;34440;-79
2022/06/18 12:11:24;;;;;;;;;;;;;;;32.56;20.31;100877.84;5354418;32;44427;-81
2022/06/18 12:14:29;;;;;;;;;;;;;;;32.00;20.44;100867.47;5334308;32;35026;-78
2022/06/18 12:17:48;;;;;;;;;;;;;;;33.99;18.33;100857.75;5357616;32;44551;-71
2022/06/18 12:20:59;;;;;;;;;;;;;;;33.76;18.61;100853.41;5344597;32;35458;-78
2022/06/18 12:24:01;;;;;;;;;;;;;;;31.81;20.55;100855.28;5341787;32;45273;-78
2022/06/18 12:27:19;;;;;;;;;;;;;;;30.69;22.35;100848.78;5358366;32;36692;-73
2022/06/18 12:30:24;;;;;;;;;;;;;;;31.19;21.57;100850.09;5340624;32;34894;-72
2022/06/18 12:33:30;;;;;;;;;;;;;;;31.72;20.74;100840.09;5357882;32;33486;-73
2022/06/18 12:36:32;;;;;;;;;;;;;;;29.63;23.07;100835.66;5340419;32;45547;-72
2022/06/18 12:39:53;;;;;;;;;;;;;;;30.08;22.00;100836.03;5325616;32;34390;-73
2022/06/18 12:42:56;;;;;;;;;;;;;;;29.58;22.84;100842.59;5354140;32;35473;-72
2022/06/18 12:46:05;;;;;;;;;;;;;;;28.83;23.62;100846.28;5337820;32;45615;-71
2022/06/18 12:49:09;;;;;;;;;;;;;;;29.73;22.44;100843.56;5351477;32;35728;-73
2022/06/18 12:52:14;;;;;;;;;;;;;;;29.37;21.23;100846.66;5340982;32;35059;-80
2022/06/18 12:55:22;;;;;;;;;;;;;;;28.81;22.77;100836.66;5345233;32;34960;-78
2022/06/18 12:58:27;;;;;;;;;;;;;;;30.06;21.29;100814.50;5356692;32;34535;-73
2022/06/18 13:01:48;;;;;;;;;;;;;;;29.25;22.60;100829.09;5340073;32;44477;-71
2022/06/18 13:05:09;;;;;;;;;;;;;;;29.95;22.19;100820.31;5357252;32;34737;-79
2022/06/18 13:08:24;;;;;;;;;;;;;;;31.03;20.73;100812.22;5338981;32;35346;-74
2022/06/18 13:11:46;;;;;;;;;;;;;;;29.82;21.92;100811.88;5334491;32;34237;-78
2022/06/18 13:14:55;;;;;;;;;;;;;;;30.47;21.57;100809.75;5355634;32;35944;-72
2022/06/18 13:18:15;;;;;;;;;;;;;;;30.26;22.00;100800.53;5341662;32;46046;-79
2022/06/18 13:21:17;;;;;;;;;;;;;;;29.88;22.31;100805.75;5358304;32;34808;-72
2022/06/18 13:31:09;;;;;;;;;;;;;;;31.00;20.47;100786.28;5357981;32;44471;-72
2022/06/18 13:34:11;;;;;;;;;;;;;;;30.58;21.01;100784.06;5342057;32;35466;-79
2022/06/18 13:37:21;;;;;;;;;;;;;;;31.18;20.32;100777.81;5359305;32;35533;-72
2022/06/18 13:40:26;;;;;;;;;;;;;;;31.05;20.72;100776.78;5324548;32;34671;-70
2022/06/18 13:43:34;;;;;;;;;;;;;;;30.97;20.34;100778.50;5344736;32;44821;-73
2022/06/18 13:46:55;;;;;;;;;;;;;;;30.78;20.66;100772.75;5361301;32;34886;-76
2022/06/18 13:50:16;;;;;;;;;;;;;;;31.19;19.92;100776.78;5341060;32;34838;-71
2022/06/18 13:53:28;;;;;;;;;;;;;;;30.64;20.60;100768.91;5352506;32;35278;-77
2022/06/18 13:56:30;;;;;;;;;;;;;;;31.07;19.68;100772.00;5354268;32;45180;-78
2022/06/18 13:59:32;;;;;;;;;;;;;;;30.68;20.19;100776.56;5343550;32;35442;-71
2022/06/18 14:02:40;;;;;;;;;;;;;;;30.58;20.03;100773.19;5358968;32;34297;-72
2022/06/18 14:05:44;;;;;;;;;;;;;;;31.43;19.13;100755.84;5343059;32;35512;-78
2022/06/18 14:08:51;;;;;;;;;;;;;;;31.12;18.87;100759.56;5359092;32;35155;-78
2022/06/18 14:11:59;;;;;;;;;;;;;;;30.51;19.46;100758.69;5341234;32;35713;-74
2022/06/18 14:15:22;;;;;;;;;;;;;;;28.87;21.37;100754.84;5341250;32;44229;-80
2022/06/18 14:18:25;;;;;;;;;;;;;;;29.42;21.12;100741.38;5359378;32;35083;-79
2022/06/18 14:21:27;;;;;;;;;;;;;;;30.39;20.19;100735.72;5341058;32;34252;-76
2022/06/18 14:24:39;;;;;;;;;;;;;;;30.18;20.07;100744.50;5358917;32;44683;-72
2022/06/18 14:27:41;;;;;;;;;;;;;;;29.22;21.51;100742.78;5344244;32;34770;-71
2022/06/18 14:30:43;;;;;;;;;;;;;;;29.59;21.21;100739.50;5345506;32;33150;-78
2022/06/18 14:33:52;;;;;;;;;;;;;;;29.54;21.13;100739.19;5356386;32;37304;-78
2022/06/18 14:36:53;;;;;;;;;;;;;;;30.09;20.23;100732.84;5343444;32;34213;-78
2022/06/18 14:39:56;;;;;;;;;;;;;;;30.28;20.10;100733.44;5337377;32;36183;-78
2022/06/18 14:43:26;;;;;;;;;;;;;;;29.57;21.07;100725.31;5338853;32;46774;-70
2022/06/18 14:46:47;;;;;;;;;;;;;;;29.96;20.95;100718.19;5348641;32;43604;-80
2022/06/18 14:49:53;;;;;;;;;;;;;;;29.72;21.08;100711.03;5359418;32;35582;-77
2022/06/18 14:52:59;;;;;;;;;;;;;;;29.95;20.92;100706.50;5341434;32;34826;-79
2022/06/18 14:56:17;;;;;;;;;;;;;;;29.80;21.06;100702.84;5345854;32;44526;-80
2022/06/18 14:59:22;;;;;;;;;;;;;;;29.18;21.63;100706.28;5339401;32;33352;-72
2022/06/18 15:02:33;;;;;;;;;;;;;;;29.06;21.95;100692.28;5350624;32;35287;-78
2022/06/18 15:05:38;;;;;;;;;;;;;;;28.96;21.81;100675.38;5359476;32;43543;-78
2022/06/18 15:08:42;;;;;;;;;;;;;;;30.16;20.78;100686.91;5343887;32;34194;-79
2022/06/18 15:11:48;;;;;;;;;;;;;;;29.12;21.80;100683.47;5358061;32;34900;-71
2022/06/18 15:14:53;;;;;;;;;;;;;;;29.42;21.58;100687.22;5340241;32;35390;-72
2022/06/18 15:28:18;;;;;;;;;;;;;;;29.39;20.90;100675.94;5359644;32;35232;-71
2022/06/18 15:31:37;;;;;;;;;;;;;;;29.46;20.90;100682.31;5343936;32;37143;-79
2022/06/18 15:34:40;;;;;;;;;;;;;;;30.19;20.33;100673.84;5341689;32;34746;-80
2022/06/18 15:37:52;;;;;;;;;;;;;;;30.75;19.91;100673.56;5358639;32;34653;-72
2022/06/18 15:40:55;;;;;;;;;;;;;;;29.75;20.72;100661.91;5318342;32;34575;-79
2022/06/18 15:43:58;;;;;;;;;;;;;;;29.28;20.93;100676.28;5358710;32;43712;-74
2022/06/18 15:47:01;;;;;;;;;;;;;;;30.01;21.00;100666.97;5343221;32;34984;-70
2022/06/18 15:50:04;;;;;;;;;;;;;;;30.22;20.48;100659.09;5348282;32;34949;-72
2022/06/18 15:53:06;;;;;;;;;;;;;;;30.20;20.99;100672.81;5354138;32;34887;-82
2022/06/18 15:56:10;;;;;;;;;;;;;;;28.63;23.20;100669.12;5342545;32;38397;-71
2022/06/18 15:59:15;;;;;;;;;;;;;;;29.25;22.72;100668.53;5358819;32;34688;-72
2022/06/18 16:02:17;;;;;;;;;;;;;;;28.86;23.16;100662.00;5339464;32;35793;-72
2022/06/18 16:05:23;;;;;;;;;;;;;;;29.10;22.41;100666.53;5358646;32;35385;-72
2022/06/18 16:08:31;;;;;;;;;;;;;;;29.71;21.62;100666.00;5341456;32;35511;-76
2022/06/18 16:11:33;;;;;;;;;;;;;;;30.44;21.02;100655.50;5341271;32;46846;-77
2022/06/18 16:14:35;;;;;;;;;;;;;;;30.34;21.39;100670.38;5357228;32;36096;-72
2022/06/18 16:17:37;;;;;;;;;;;;;;;29.59;22.11;100666.38;5342667;32;35320;-79
2022/06/18 16:20:39;;;;;;;;;;;;;;;29.01;22.54;100664.03;5362314;32;34307;-71
2022/06/18 16:23:47;;;;;;;;;;;;;;;30.46;21.58;100666.16;5331586;32;34475;-79
2022/06/18 16:26:50;;;;;;;;;;;;;;;29.77;22.02;100662.59;5363058;32;34828;-72